Home > Products > Valid Products > MTR

000
SAUS45 KPUB 021002 COR
MTRSPD
METAR KSPD 020956Z AUTO 24006KT 18/12 A3003 RMK AO1 SLP104 T01780122





000
SAUS45 KPUB 021002 COR
MTRSPD
METAR KSPD 020956Z AUTO 24006KT 18/12 A3003 RMK AO1 SLP104 T01780122





000
SAUS45 KPUB 020903 COR
MTRSPD
METAR KSPD 020856Z AUTO 22008KT 19/13 A3004 RMK AO1 SLP103 T01890128
58009





000
SAUS45 KPUB 020903 COR
MTRSPD
METAR KSPD 020856Z AUTO 22008KT 19/13 A3004 RMK AO1 SLP103 T01890128
58009





000
SAUS45 KPUB 020803 COR
MTRSPD
METAR KSPD 020756Z AUTO 23013KT 21/13 A3005 RMK AO1 SLP103 T02060128





000
SAUS45 KPUB 020702 COR
MTRSPD
METAR KSPD 020656Z AUTO 22013KT 21/13 A3006 RMK AO1 SLP108 T02060133
403280139





000
SAUS45 KPUB 020702 COR
MTRSPD
METAR KSPD 020656Z AUTO 22013KT 21/13 A3006 RMK AO1 SLP108 T02060133
403280139





000
SAUS45 KPUB 020603 COR
MTRSPD
METAR KSPD 020556Z AUTO 21010G18KT 21/14 A3007 RMK AO1 SLP109
T02060139 10283 20200 50005





000
SAUS45 KPUB 020603 COR
MTRSPD
METAR KSPD 020556Z AUTO 21010G18KT 21/14 A3007 RMK AO1 SLP109
T02060139 10283 20200 50005





000
SAUS45 KPUB 020502 COR
MTRSPD
METAR KSPD 020456Z AUTO 21013KT 22/13 A3007 RMK AO1 SLP113 T02170133





000
SAUS45 KPUB 020502 COR
MTRSPD
METAR KSPD 020456Z AUTO 21013KT 22/13 A3007 RMK AO1 SLP113 T02170133





000
SAUS45 KPUB 020403 COR
MTRSPD
METAR KSPD 020356Z AUTO 21011G17KT 22/13 A3006 RMK AO1 SLP113
T02220128





000
SAUS45 KPUB 020303 COR
MTRSPD
METAR KSPD 020256Z AUTO 19012KT 22/12 A3005 RMK AO1 SLP110 T02220122
53009





000
SAUS45 KPUB 020204 COR
MTRSPD
METAR KSPD 020156Z AUTO 18014KT 23/12 A3004 RMK AO1 SLP107 T02330122





000
SAUS45 KPUB 020204 COR
MTRSPD
METAR KSPD 020156Z AUTO 18014KT 23/12 A3004 RMK AO1 SLP107 T02330122





000
SAUS45 KPUB 020103 COR
MTRSPD
METAR KSPD 020056Z AUTO 19019G24KT 25/12 A3003 RMK AO1 WSHFT 2354
SLP112 T02500117





000
SAUS45 KPUB 020015
MTRSPD
SPECI KSPD 020014Z AUTO 19017KT 26/12 A3002 RMK AO1 WSHFT 2354
T02610122





000
SAUS45 KPUB 020003 COR
MTRSPD
METAR KSPD 012356Z AUTO 14012KT 28/12 A3002 RMK AO1 WSHFT 2258
SLP103 T02830122 10328 20278 55003





000
SAUS45 KPUB 012319
MTRSPD
SPECI KSPD 012318Z AUTO 12009KT 29/13 A3001 RMK AO1 WSHFT 2258
T02890128





000
SAUS45 KPUB 012303 COR
MTRSPD
METAR KSPD 012256Z AUTO 22005G19KT 30/12 A3001 RMK AO1 SLP095
T03000122





000
SAUS45 KPUB 012203 COR
MTRSPD
METAR KSPD 012156Z AUTO 26003KT 30/12 A3002 RMK AO1 SLP098 T03000117





000
SAUS45 KPUB 012203 COR
MTRSPD
METAR KSPD 012156Z AUTO 26003KT 30/12 A3002 RMK AO1 SLP098 T03000117





000
SAUS45 KPUB 012102 COR
MTRSPD
METAR KSPD 012056Z AUTO 12004KT 30/11 A3003 RMK AO1 SLP101 T03000111
56007





000
SAUS45 KPUB 012003 COR
MTRSPD
METAR KSPD 011956Z AUTO 00000KT 32/12 A3004 RMK AO1 SLP102 T03170122





000
SAUS45 KPUB 011857
MTRSPD
METAR KSPD 011856Z AUTO VRB06KT 31/13 A3005 RMK AO1 SLP103 T03110128





000
SAUS45 KPUB 011803 COR
MTRSPD
METAR KSPD 011756Z AUTO VRB05KT 31/12 A3005 RMK AO1 SLP105 T03110122
10311 20139 58007





000
SAUS45 KPUB 011803 COR
MTRSPD
METAR KSPD 011756Z AUTO VRB05KT 31/12 A3005 RMK AO1 SLP105 T03110122
10311 20139 58007





000
SAUS45 KPUB 011703 COR
MTRSPD
METAR KSPD 011656Z AUTO VRB05KT 28/12 A3007 RMK AO1 SLP113 T02830122





000
SAUS45 KPUB 011603 COR
MTRSPD
METAR KSPD 011556Z AUTO VRB03KT 27/12 A3007 RMK AO1 SLP115 T02670117





000
SAUS45 KPUB 011503 COR
MTRSPD
METAR KSPD 011456Z AUTO 07003KT 24/13 A3008 RMK AO1 SLP115 T02440133
50005





000
SAUS45 KPUB 011403 COR
MTRSPD
METAR KSPD 011356Z AUTO 00000KT 22/13 A3008 RMK AO1 SLP119 T02170133





000
SAUS45 KPUB 011302 COR
MTRSPD
METAR KSPD 011256Z AUTO 28004KT 16/12 A3008 RMK AO1 SLP123 T01560117





000
SAUS45 KPUB 011302 COR
MTRSPD
METAR KSPD 011256Z AUTO 28004KT 16/12 A3008 RMK AO1 SLP123 T01560117





000
SAUS45 KPUB 011203 COR
MTRSPD
METAR KSPD 011156Z AUTO 25003KT 16/12 A3006 RMK AO1 SLP116 T01560117
10211 20156 50003





000
SAUS45 KPUB 011203 COR
MTRSPD
METAR KSPD 011156Z AUTO 25003KT 16/12 A3006 RMK AO1 SLP116 T01560117
10211 20156 50003





000
SAUS45 KPUB 011102 COR
MTRSPD
METAR KSPD 011056Z AUTO 24005KT 16/12 A3007 RMK AO1 SLP112 T01610122





000
SAUS45 KPUB 011102 COR
MTRSPD
METAR KSPD 011056Z AUTO 24005KT 16/12 A3007 RMK AO1 SLP112 T01610122





000
SAUS45 KPUB 010958
MTRSPD
METAR KSPD 010956Z AUTO 35003KT 18/12 A3006 RMK AO1 SLP107 T01780122





000
SAUS45 KPUB 010902 COR
MTRSPD
METAR KSPD 010856Z AUTO 30006KT 18/12 A3005 RMK AO1 SLP102 T01830122
56014





000
SAUS45 KPUB 010802 COR
MTRSPD
METAR KSPD 010756Z AUTO 34005KT 18/12 A3005 RMK AO1 SLP101 T01830122





000
SAUS45 KPUB 010702 COR
MTRSPD
METAR KSPD 010656Z AUTO 28005KT 20/12 A3010 RMK AO1 SLP116 T02000122
403610133





000
SAUS45 KPUB 010702 COR
MTRSPD
METAR KSPD 010656Z AUTO 28005KT 20/12 A3010 RMK AO1 SLP116 T02000122
403610133





000
SAUS45 KPUB 010603 COR
MTRSPD
METAR KSPD 010556Z AUTO 23003KT 21/13 A3010 RMK AO1 SLP117 T02060128
10294 20200 51020





000
SAUS45 KPUB 010603 COR
MTRSPD
METAR KSPD 010556Z AUTO 23003KT 21/13 A3010 RMK AO1 SLP117 T02060128
10294 20200 51020





000
SAUS45 KPUB 010503 COR
MTRSPD
METAR KSPD 010456Z AUTO 06004KT 22/13 A3008 RMK AO1 SLP110 T02170128





000
SAUS45 KPUB 010503 COR
MTRSPD
METAR KSPD 010456Z AUTO 06004KT 22/13 A3008 RMK AO1 SLP110 T02170128





000
SAUS45 KPUB 010403 COR
MTRSPD
METAR KSPD 010356Z AUTO 36009KT 22/12 A3006 RMK AO1 WSHFT 0250
SLP105 T02220122





000
SAUS45 KPUB 010312
MTRSPD
SPECI KSPD 010310Z AUTO 32014KT 24/12 A3004 RMK AO1 WSHFT 0250
T02440117





000
SAUS45 KPUB 010312
MTRSPD
SPECI KSPD 010310Z AUTO 32014KT 24/12 A3004 RMK AO1 WSHFT 0250
T02440117





000
SAUS45 KPUB 010302 COR
MTRSPD
METAR KSPD 010256Z AUTO 29012G22KT 26/12 A3003 RMK AO1 PRESRR SLP093
T02610117 53021





000
SAUS45 KPUB 010302 COR
MTRSPD
METAR KSPD 010256Z AUTO 29012G22KT 26/12 A3003 RMK AO1 PRESRR SLP093
T02610117 53021





000
SAUS45 KPUB 010202 COR
MTRSPD
METAR KSPD 010156Z AUTO 20007KT 27/11 A2997 RMK AO1 SLP080 T02670111





000
SAUS45 KPUB 010102 COR
MTRSPD
METAR KSPD 010056Z AUTO 21004KT 29/10 A2996 RMK AO1 SLP085 T02890100





000
SAUS45 KPUB 010003 COR
MTRSPD
METAR KSPD 312356Z AUTO 23011G15KT 29/11 A2996 RMK AO1 SLP083
T02940106 10361 20294 53003





000
SAUS45 KPUB 010003 COR
MTRSPD
METAR KSPD 312356Z AUTO 23011G15KT 29/11 A2996 RMK AO1 SLP083
T02940106 10361 20294 53003





000
SAUS45 KPUB 312303 COR
MTRSPD
METAR KSPD 312256Z AUTO 19019KT 34/10 A2994 RMK AO1 SLP068 T03390100





000
SAUS45 KPUB 312303 COR
MTRSPD
METAR KSPD 312256Z AUTO 19019KT 34/10 A2994 RMK AO1 SLP068 T03390100





000
SAUS45 KPUB 312203 COR
MTRSPD
METAR KSPD 312156Z AUTO 16015G19KT 34/10 A2994 RMK AO1 SLP066
T03440100





000
SAUS45 KPUB 311857
MTRSPD
METAR KSPD 311856Z AUTO 30007KT 35/08 A2998 RMK AO1 SLP078 T03500083





000
SAUS45 KPUB 310858
MTRSPD
METAR KSPD 310856Z AUTO 19006KT 16/09 A2998 RMK AO1 SLP082 T01560094
56013





000
SAUS45 KPUB 310858
MTRSPD
METAR KSPD 310856Z AUTO 19006KT 16/09 A2998 RMK AO1 SLP082 T01560094
56013





    US Dept of Commerce
    National Oceanic and Atmospheric Administration
    National Weather Service
    1325 East West Highway
    Silver Spring, MD 20910
    Page Author: NWS Internet Services Team
Disclaimer
Information Quality
Credits
Glossary
Privacy Policy
Freedom of Information Act (FOIA)
About Us
Career Opportunities